sensor_id;sensor_type;location;lat;lon;timestamp;temperature;humidity
48744;DHT22;34538;48.836;9.174;2022-09-09T00:00:41;15.10;99.90
48744;DHT22;34538;48.836;9.174;2022-09-09T00:03:23;15.10;99.90
48744;DHT22;34538;48.836;9.174;2022-09-09T00:09:07;15.10;99.90
48744;DHT22;34538;48.836;9.174;2022-09-09T00:11:50;15.10;99.90
48744;DHT22;34538;48.836;9.174;2022-09-09T00:16:52;15.10;99.90
48744;DHT22;34538;48.836;9.174;2022-09-09T00:19:27;15.20;99.90
48744;DHT22;34538;48.836;9.174;2022-09-09T00:22:17;15.20;99.90
48744;DHT22;34538;48.836;9.174;2022-09-09T00:24:44;15.30;99.90
48744;DHT22;34538;48.836;9.174;2022-09-09T00:27:35;15.30;99.90
48744;DHT22;34538;48.836;9.174;2022-09-09T00:30:16;15.40;99.90
48744;DHT22;34538;48.836;9.174;2022-09-09T00:32:45;15.50;99.90
48744;DHT22;34538;48.836;9.174;2022-09-09T00:35:23;15.60;99.90
48744;DHT22;34538;48.836;9.174;2022-09-09T00:37:53;15.70;99.90
48744;DHT22;34538;48.836;9.174;2022-09-09T00:40:38;15.80;99.90
48744;DHT22;34538;48.836;9.174;2022-09-09T00:46:23;15.90;99.90
48744;DHT22;34538;48.836;9.174;2022-09-09T00:55:02;16.10;99.90
48744;DHT22;34538;48.836;9.174;2022-09-09T00:57:32;16.20;99.90
48744;DHT22;34538;48.836;9.174;2022-09-09T00:59:59;16.20;99.90
48744;DHT22;34538;48.836;9.174;2022-09-09T01:02:42;16.30;99.90
48744;DHT22;34538;48.836;9.174;2022-09-09T01:07:48;16.40;99.90
48744;DHT22;34538;48.836;9.174;2022-09-09T01:13:11;16.40;99.90
48744;DHT22;34538;48.836;9.174;2022-09-09T01:15:41;16.40;99.90
48744;DHT22;34538;48.836;9.174;2022-09-09T01:18:10;16.50;99.90
48744;DHT22;34538;48.836;9.174;2022-09-09T01:26:40;16.50;99.90
48744;DHT22;34538;48.836;9.174;2022-09-09T01:29:17;16.60;99.90
48744;DHT22;34538;48.836;9.174;2022-09-09T01:31:57;16.50;99.90
48744;DHT22;34538;48.836;9.174;2022-09-09T01:34:36;16.50;99.90
48744;DHT22;34538;48.836;9.174;2022-09-09T01:37:06;16.50;99.90
48744;DHT22;34538;48.836;9.174;2022-09-09T01:39:35;16.60;99.90
48744;DHT22;34538;48.836;9.174;2022-09-09T01:42:09;16.50;99.90
48744;DHT22;34538;48.836;9.174;2022-09-09T01:44:36;16.60;99.90
48744;DHT22;34538;48.836;9.174;2022-09-09T01:47:03;16.60;99.90
48744;DHT22;34538;48.836;9.174;2022-09-09T01:49:30;16.60;99.90
48744;DHT22;34538;48.836;9.174;2022-09-09T01:51:57;16.60;99.90
48744;DHT22;34538;48.836;9.174;2022-09-09T01:54:30;16.60;99.90
48744;DHT22;34538;48.836;9.174;2022-09-09T01:59:55;16.60;99.90
48744;DHT22;34538;48.836;9.174;2022-09-09T02:05:35;16.60;99.90
48744;DHT22;34538;48.836;9.174;2022-09-09T02:08:10;16.60;99.90
48744;DHT22;34538;48.836;9.174;2022-09-09T02:10:55;16.60;99.90
48744;DHT22;34538;48.836;9.174;2022-09-09T02:13:47;16.50;99.90
48744;DHT22;34538;48.836;9.174;2022-09-09T02:21:47;16.30;99.90
48744;DHT22;34538;48.836;9.174;2022-09-09T02:24:15;16.20;99.90
48744;DHT22;34538;48.836;9.174;2022-09-09T02:26:52;16.10;99.90
48744;DHT22;34538;48.836;9.174;2022-09-09T02:29:24;16.00;99.90
48744;DHT22;34538;48.836;9.174;2022-09-09T02:31:53;15.90;99.90
48744;DHT22;34538;48.836;9.174;2022-09-09T02:34:27;15.80;99.90
48744;DHT22;34538;48.836;9.174;2022-09-09T02:36:55;15.80;99.90
48744;DHT22;34538;48.836;9.174;2022-09-09T02:39:22;15.80;99.90
48744;DHT22;34538;48.836;9.174;2022-09-09T02:41:50;15.80;99.90
48744;DHT22;34538;48.836;9.174;2022-09-09T02:44:17;15.80;99.90
48744;DHT22;34538;48.836;9.174;2022-09-09T02:54:35;15.70;99.90
48744;DHT22;34538;48.836;9.174;2022-09-09T02:57:25;15.70;99.90
48744;DHT22;34538;48.836;9.174;2022-09-09T02:59:53;15.70;99.90
48744;DHT22;34538;48.836;9.174;2022-09-09T03:02:23;15.70;99.90
48744;DHT22;34538;48.836;9.174;2022-09-09T03:04:54;15.60;99.90
48744;DHT22;34538;48.836;9.174;2022-09-09T03:07:20;15.60;99.90
48744;DHT22;34538;48.836;9.174;2022-09-09T03:09:46;15.60;99.90
48744;DHT22;34538;48.836;9.174;2022-09-09T03:12:12;15.50;99.90
48744;DHT22;34538;48.836;9.174;2022-09-09T03:14:39;15.40;99.90
48744;DHT22;34538;48.836;9.174;2022-09-09T03:17:06;15.30;99.90
48744;DHT22;34538;48.836;9.174;2022-09-09T03:19:36;15.20;99.90
48744;DHT22;34538;48.836;9.174;2022-09-09T03:22:03;15.20;99.90
48744;DHT22;34538;48.836;9.174;2022-09-09T03:24:31;15.10;99.90
48744;DHT22;34538;48.836;9.174;2022-09-09T03:26:57;15.00;99.90
48744;DHT22;34538;48.836;9.174;2022-09-09T03:29:23;14.90;99.90
48744;DHT22;34538;48.836;9.174;2022-09-09T03:31:52;14.90;99.90
48744;DHT22;34538;48.836;9.174;2022-09-09T03:34:17;14.80;99.90
48744;DHT22;34538;48.836;9.174;2022-09-09T03:36:43;14.90;99.90
48744;DHT22;34538;48.836;9.174;2022-09-09T03:39:09;14.90;99.90
48744;DHT22;34538;48.836;9.174;2022-09-09T03:41:36;14.90;99.90
48744;DHT22;34538;48.836;9.174;2022-09-09T03:44:03;14.90;99.90
48744;DHT22;34538;48.836;9.174;2022-09-09T03:46:34;14.90;99.90
48744;DHT22;34538;48.836;9.174;2022-09-09T03:49:00;14.90;99.90
48744;DHT22;34538;48.836;9.174;2022-09-09T03:51:26;15.00;99.90
48744;DHT22;34538;48.836;9.174;2022-09-09T03:53:53;15.00;99.90
48744;DHT22;34538;48.836;9.174;2022-09-09T03:56:20;15.00;99.90
48744;DHT22;34538;48.836;9.174;2022-09-09T03:58:47;15.10;99.90
48744;DHT22;34538;48.836;9.174;2022-09-09T04:01:14;15.10;99.90
48744;DHT22;34538;48.836;9.174;2022-09-09T04:03:42;15.10;99.90
48744;DHT22;34538;48.836;9.174;2022-09-09T04:06:09;15.00;99.90
48744;DHT22;34538;48.836;9.174;2022-09-09T04:08:36;15.00;99.90
48744;DHT22;34538;48.836;9.174;2022-09-09T04:11:04;15.00;99.90
48744;DHT22;34538;48.836;9.174;2022-09-09T04:13:34;15.00;99.90
48744;DHT22;34538;48.836;9.174;2022-09-09T04:16:02;15.00;99.90
48744;DHT22;34538;48.836;9.174;2022-09-09T04:18:29;15.00;99.90
48744;DHT22;34538;48.836;9.174;2022-09-09T04:20:56;15.00;99.90
48744;DHT22;34538;48.836;9.174;2022-09-09T04:23:27;15.00;99.90
48744;DHT22;34538;48.836;9.174;2022-09-09T04:25:57;15.00;99.90
48744;DHT22;34538;48.836;9.174;2022-09-09T04:28:25;15.10;99.90
48744;DHT22;34538;48.836;9.174;2022-09-09T04:30:52;15.10;99.90
48744;DHT22;34538;48.836;9.174;2022-09-09T04:33:19;15.10;99.90
48744;DHT22;34538;48.836;9.174;2022-09-09T04:35:47;15.10;99.90
48744;DHT22;34538;48.836;9.174;2022-09-09T04:38:15;15.20;99.90
48744;DHT22;34538;48.836;9.174;2022-09-09T04:40:46;15.20;99.90
48744;DHT22;34538;48.836;9.174;2022-09-09T04:43:13;15.30;99.90
48744;DHT22;34538;48.836;9.174;2022-09-09T04:45:43;15.30;99.90
48744;DHT22;34538;48.836;9.174;2022-09-09T04:48:10;15.30;99.90
48744;DHT22;34538;48.836;9.174;2022-09-09T04:50:36;15.40;99.90
48744;DHT22;34538;48.836;9.174;2022-09-09T04:53:03;15.40;99.90
48744;DHT22;34538;48.836;9.174;2022-09-09T04:55:31;15.40;99.90
48744;DHT22;34538;48.836;9.174;2022-09-09T04:57:57;15.40;99.90
48744;DHT22;34538;48.836;9.174;2022-09-09T05:00:24;15.30;99.90
48744;DHT22;34538;48.836;9.174;2022-09-09T05:02:50;15.40;99.90
48744;DHT22;34538;48.836;9.174;2022-09-09T05:05:17;15.40;99.90
48744;DHT22;34538;48.836;9.174;2022-09-09T05:07:46;15.40;99.90
48744;DHT22;34538;48.836;9.174;2022-09-09T05:10:13;15.30;99.90
48744;DHT22;34538;48.836;9.174;2022-09-09T05:12:41;15.30;99.90
48744;DHT22;34538;48.836;9.174;2022-09-09T05:15:07;15.30;99.90
48744;DHT22;34538;48.836;9.174;2022-09-09T05:17:33;15.30;99.90
48744;DHT22;34538;48.836;9.174;2022-09-09T05:19:59;15.30;99.90
48744;DHT22;34538;48.836;9.174;2022-09-09T05:22:25;15.30;99.90
48744;DHT22;34538;48.836;9.174;2022-09-09T05:24:52;15.30;99.90
48744;DHT22;34538;48.836;9.174;2022-09-09T05:27:18;15.40;99.90
48744;DHT22;34538;48.836;9.174;2022-09-09T05:29:48;15.40;99.90
48744;DHT22;34538;48.836;9.174;2022-09-09T05:32:14;15.30;99.90
48744;DHT22;34538;48.836;9.174;2022-09-09T05:34:43;15.40;99.90
48744;DHT22;34538;48.836;9.174;2022-09-09T05:37:09;15.50;99.90
48744;DHT22;34538;48.836;9.174;2022-09-09T05:39:36;15.40;99.90
48744;DHT22;34538;48.836;9.174;2022-09-09T05:42:03;15.50;99.90
48744;DHT22;34538;48.836;9.174;2022-09-09T05:44:31;15.50;99.90
48744;DHT22;34538;48.836;9.174;2022-09-09T05:46:58;15.60;99.90
48744;DHT22;34538;48.836;9.174;2022-09-09T05:49:24;15.70;99.90
48744;DHT22;34538;48.836;9.174;2022-09-09T05:51:50;15.70;99.90
48744;DHT22;34538;48.836;9.174;2022-09-09T05:54:18;15.80;99.90
48744;DHT22;34538;48.836;9.174;2022-09-09T05:56:47;15.80;99.90
48744;DHT22;34538;48.836;9.174;2022-09-09T05:59:16;15.90;99.90
48744;DHT22;34538;48.836;9.174;2022-09-09T06:01:41;15.90;99.90
48744;DHT22;34538;48.836;9.174;2022-09-09T06:04:12;16.00;99.90
48744;DHT22;34538;48.836;9.174;2022-09-09T06:06:39;16.00;99.90
48744;DHT22;34538;48.836;9.174;2022-09-09T06:09:13;16.00;99.90
48744;DHT22;34538;48.836;9.174;2022-09-09T06:11:41;16.10;99.90
48744;DHT22;34538;48.836;9.174;2022-09-09T06:14:09;16.10;99.90
48744;DHT22;34538;48.836;9.174;2022-09-09T06:16:36;16.20;99.90
48744;DHT22;34538;48.836;9.174;2022-09-09T06:19:17;16.20;99.90
48744;DHT22;34538;48.836;9.174;2022-09-09T06:21:43;16.30;99.90
48744;DHT22;34538;48.836;9.174;2022-09-09T06:24:10;16.40;99.90
48744;DHT22;34538;48.836;9.174;2022-09-09T06:26:39;16.40;99.90
48744;DHT22;34538;48.836;9.174;2022-09-09T06:29:11;16.50;99.90
48744;DHT22;34538;48.836;9.174;2022-09-09T06:31:37;16.60;99.90
48744;DHT22;34538;48.836;9.174;2022-09-09T06:34:09;16.60;99.90
48744;DHT22;34538;48.836;9.174;2022-09-09T06:36:38;16.70;99.90
48744;DHT22;34538;48.836;9.174;2022-09-09T06:39:05;16.80;99.90
48744;DHT22;34538;48.836;9.174;2022-09-09T06:41:33;16.90;99.90
48744;DHT22;34538;48.836;9.174;2022-09-09T06:44:00;17.00;99.90
48744;DHT22;34538;48.836;9.174;2022-09-09T06:46:37;17.00;99.90
48744;DHT22;34538;48.836;9.174;2022-09-09T06:49:04;17.10;99.90
48744;DHT22;34538;48.836;9.174;2022-09-09T06:51:31;17.20;99.90
48744;DHT22;34538;48.836;9.174;2022-09-09T06:54:00;17.20;99.90
48744;DHT22;34538;48.836;9.174;2022-09-09T06:56:30;17.30;99.90
48744;DHT22;34538;48.836;9.174;2022-09-09T06:58:59;17.40;99.90
48744;DHT22;34538;48.836;9.174;2022-09-09T07:01:31;17.40;99.90
48744;DHT22;34538;48.836;9.174;2022-09-09T07:04:01;17.50;99.90
48744;DHT22;34538;48.836;9.174;2022-09-09T07:06:30;17.60;99.90
48744;DHT22;34538;48.836;9.174;2022-09-09T07:09:00;17.60;99.90
48744;DHT22;34538;48.836;9.174;2022-09-09T07:11:29;17.70;99.90
48744;DHT22;34538;48.836;9.174;2022-09-09T07:14:00;17.80;99.90
48744;DHT22;34538;48.836;9.174;2022-09-09T07:16:27;17.80;99.90
48744;DHT22;34538;48.836;9.174;2022-09-09T07:18:56;17.90;99.90
48744;DHT22;34538;48.836;9.174;2022-09-09T07:21:25;18.00;99.90
48744;DHT22;34538;48.836;9.174;2022-09-09T07:23:52;18.00;99.90
48744;DHT22;34538;48.836;9.174;2022-09-09T07:26:19;18.20;99.90
48744;DHT22;34538;48.836;9.174;2022-09-09T07:28:46;18.20;99.90
48744;DHT22;34538;48.836;9.174;2022-09-09T07:31:20;18.30;99.90
48744;DHT22;34538;48.836;9.174;2022-09-09T07:33:47;18.40;99.90
48744;DHT22;34538;48.836;9.174;2022-09-09T07:36:25;18.50;99.90
48744;DHT22;34538;48.836;9.174;2022-09-09T07:38:54;18.60;99.90
48744;DHT22;34538;48.836;9.174;2022-09-09T07:41:23;18.70;99.90
48744;DHT22;34538;48.836;9.174;2022-09-09T07:43:50;18.80;99.90
48744;DHT22;34538;48.836;9.174;2022-09-09T07:46:18;19.00;99.90
48744;DHT22;34538;48.836;9.174;2022-09-09T07:48:55;19.10;99.90
48744;DHT22;34538;48.836;9.174;2022-09-09T07:51:31;19.20;99.90
48744;DHT22;34538;48.836;9.174;2022-09-09T07:54:00;19.30;99.90
48744;DHT22;34538;48.836;9.174;2022-09-09T07:56:29;19.30;99.90
48744;DHT22;34538;48.836;9.174;2022-09-09T07:58:56;19.30;99.90
48744;DHT22;34538;48.836;9.174;2022-09-09T08:01:33;19.30;99.90
48744;DHT22;34538;48.836;9.174;2022-09-09T08:04:03;19.40;99.90
48744;DHT22;34538;48.836;9.174;2022-09-09T08:06:32;19.40;99.90
48744;DHT22;34538;48.836;9.174;2022-09-09T08:08:59;19.50;99.90
48744;DHT22;34538;48.836;9.174;2022-09-09T08:11:27;19.60;99.90
48744;DHT22;34538;48.836;9.174;2022-09-09T08:13:54;19.70;99.90
48744;DHT22;34538;48.836;9.174;2022-09-09T08:16:22;19.80;99.90
48744;DHT22;34538;48.836;9.174;2022-09-09T08:18:49;19.90;99.90
48744;DHT22;34538;48.836;9.174;2022-09-09T08:21:20;20.00;99.90
48744;DHT22;34538;48.836;9.174;2022-09-09T08:23:47;20.10;99.90
48744;DHT22;34538;48.836;9.174;2022-09-09T08:26:16;20.20;99.90
48744;DHT22;34538;48.836;9.174;2022-09-09T08:28:43;20.30;99.90
48744;DHT22;34538;48.836;9.174;2022-09-09T08:31:13;20.40;99.90
48744;DHT22;34538;48.836;9.174;2022-09-09T08:33:41;20.50;99.90
48744;DHT22;34538;48.836;9.174;2022-09-09T08:36:10;20.60;99.90
48744;DHT22;34538;48.836;9.174;2022-09-09T08:38:37;20.60;99.90
48744;DHT22;34538;48.836;9.174;2022-09-09T08:43:50;20.70;99.90
48744;DHT22;34538;48.836;9.174;2022-09-09T08:46:31;20.60;99.90
48744;DHT22;34538;48.836;9.174;2022-09-09T08:51:40;20.40;99.90
48744;DHT22;34538;48.836;9.174;2022-09-09T08:54:09;20.40;99.90
48744;DHT22;34538;48.836;9.174;2022-09-09T08:56:36;20.30;99.90
48744;DHT22;34538;48.836;9.174;2022-09-09T08:59:03;20.30;99.90
48744;DHT22;34538;48.836;9.174;2022-09-09T09:02:17;20.40;99.90
48744;DHT22;34538;48.836;9.174;2022-09-09T09:05:06;20.50;99.90
48744;DHT22;34538;48.836;9.174;2022-09-09T09:10:39;20.80;99.90
48744;DHT22;34538;48.836;9.174;2022-09-09T09:13:34;21.00;99.90
48744;DHT22;34538;48.836;9.174;2022-09-09T09:18:38;21.30;99.90
48744;DHT22;34538;48.836;9.174;2022-09-09T09:21:17;21.50;99.90
48744;DHT22;34538;48.836;9.174;2022-09-09T09:23:55;21.50;99.90
48744;DHT22;34538;48.836;9.174;2022-09-09T09:26:24;21.50;99.90
48744;DHT22;34538;48.836;9.174;2022-09-09T09:28:55;21.40;99.90
48744;DHT22;34538;48.836;9.174;2022-09-09T09:31:22;21.20;99.90
48744;DHT22;34538;48.836;9.174;2022-09-09T09:33:54;21.00;99.90
48744;DHT22;34538;48.836;9.174;2022-09-09T09:36:34;20.90;99.90
48744;DHT22;34538;48.836;9.174;2022-09-09T09:39:02;20.80;99.90
48744;DHT22;34538;48.836;9.174;2022-09-09T09:41:42;20.70;99.90
48744;DHT22;34538;48.836;9.174;2022-09-09T09:44:25;20.70;99.90
48744;DHT22;34538;48.836;9.174;2022-09-09T09:46:51;20.60;99.90
48744;DHT22;34538;48.836;9.174;2022-09-09T09:49:16;20.50;99.90
48744;DHT22;34538;48.836;9.174;2022-09-09T09:51:43;20.50;99.90
48744;DHT22;34538;48.836;9.174;2022-09-09T09:56:39;20.60;99.90
48744;DHT22;34538;48.836;9.174;2022-09-09T10:02:15;20.60;99.90
48744;DHT22;34538;48.836;9.174;2022-09-09T10:04:42;20.70;99.90
48744;DHT22;34538;48.836;9.174;2022-09-09T10:07:21;20.90;99.90
48744;DHT22;34538;48.836;9.174;2022-09-09T10:09:55;21.00;99.90
48744;DHT22;34538;48.836;9.174;2022-09-09T10:12:46;21.00;99.90
48744;DHT22;34538;48.836;9.174;2022-09-09T10:21:20;21.40;99.90
48744;DHT22;34538;48.836;9.174;2022-09-09T10:26:58;21.70;99.90
48744;DHT22;34538;48.836;9.174;2022-09-09T10:32:38;21.80;99.60
48744;DHT22;34538;48.836;9.174;2022-09-09T10:38:17;21.90;99.50
48744;DHT22;34538;48.836;9.174;2022-09-09T10:57:50;22.60;98.40
48744;DHT22;34538;48.836;9.174;2022-09-09T11:00:18;22.70;98.30
48744;DHT22;34538;48.836;9.174;2022-09-09T11:02:49;22.70;98.00
48744;DHT22;34538;48.836;9.174;2022-09-09T11:13:14;22.60;98.60
48744;DHT22;34538;48.836;9.174;2022-09-09T11:15:50;22.50;98.80
48744;DHT22;34538;48.836;9.174;2022-09-09T11:18:21;22.20;99.40
48744;DHT22;34538;48.836;9.174;2022-09-09T11:20:52;21.80;99.80
48744;DHT22;34538;48.836;9.174;2022-09-09T11:23:32;21.40;99.90
48744;DHT22;34538;48.836;9.174;2022-09-09T11:26:03;20.90;99.90
48744;DHT22;34538;48.836;9.174;2022-09-09T11:34:59;20.00;99.90
48744;DHT22;34538;48.836;9.174;2022-09-09T11:37:40;19.90;99.90
48744;DHT22;34538;48.836;9.174;2022-09-09T11:40:14;19.90;99.90
48744;DHT22;34538;48.836;9.174;2022-09-09T11:42:41;19.90;99.90
48744;DHT22;34538;48.836;9.174;2022-09-09T11:45:10;20.00;99.90
48744;DHT22;34538;48.836;9.174;2022-09-09T11:47:36;20.10;99.90
48744;DHT22;34538;48.836;9.174;2022-09-09T11:50:10;20.20;99.90
48744;DHT22;34538;48.836;9.174;2022-09-09T11:52:40;20.30;99.90
48744;DHT22;34538;48.836;9.174;2022-09-09T11:55:24;20.30;99.90
48744;DHT22;34538;48.836;9.174;2022-09-09T11:58:02;20.30;99.90
48744;DHT22;34538;48.836;9.174;2022-09-09T12:00:37;20.30;99.90
48744;DHT22;34538;48.836;9.174;2022-09-09T12:05:59;20.30;99.90
48744;DHT22;34538;48.836;9.174;2022-09-09T12:08:29;20.30;99.90
48744;DHT22;34538;48.836;9.174;2022-09-09T12:10:59;20.40;99.90
48744;DHT22;34538;48.836;9.174;2022-09-09T12:13:56;20.40;99.90
48744;DHT22;34538;48.836;9.174;2022-09-09T12:16:33;20.50;99.90
48744;DHT22;34538;48.836;9.174;2022-09-09T12:22:02;20.60;99.90
48744;DHT22;34538;48.836;9.174;2022-09-09T12:24:52;20.80;99.90
48744;DHT22;34538;48.836;9.174;2022-09-09T12:27:33;20.90;99.90
48744;DHT22;34538;48.836;9.174;2022-09-09T12:30:15;20.90;99.90
48744;DHT22;34538;48.836;9.174;2022-09-09T12:32:41;21.10;99.90
48744;DHT22;34538;48.836;9.174;2022-09-09T12:37:41;21.20;99.90
48744;DHT22;34538;48.836;9.174;2022-09-09T12:40:21;21.20;99.60
48744;DHT22;34538;48.836;9.174;2022-09-09T12:42:47;21.30;99.20
48744;DHT22;34538;48.836;9.174;2022-09-09T12:45:18;21.40;98.50
48744;DHT22;34538;48.836;9.174;2022-09-09T12:47:49;21.50;98.90
48744;DHT22;34538;48.836;9.174;2022-09-09T12:50:26;21.40;98.50
48744;DHT22;34538;48.836;9.174;2022-09-09T12:53:36;21.40;98.80
48744;DHT22;34538;48.836;9.174;2022-09-09T12:56:08;21.50;99.00
48744;DHT22;34538;48.836;9.174;2022-09-09T12:58:38;21.50;98.60
48744;DHT22;34538;48.836;9.174;2022-09-09T13:01:06;21.70;98.60
48744;DHT22;34538;48.836;9.174;2022-09-09T13:03:33;21.70;98.30
48744;DHT22;34538;48.836;9.174;2022-09-09T13:06:26;21.80;98.70
48744;DHT22;34538;48.836;9.174;2022-09-09T13:09:18;21.90;98.50
48744;DHT22;34538;48.836;9.174;2022-09-09T13:11:50;22.10;98.80
48744;DHT22;34538;48.836;9.174;2022-09-09T13:14:28;22.10;97.90
48744;DHT22;34538;48.836;9.174;2022-09-09T13:17:00;22.20;98.20
48744;DHT22;34538;48.836;9.174;2022-09-09T13:19:33;22.20;98.60
48744;DHT22;34538;48.836;9.174;2022-09-09T13:22:00;22.30;98.40
48744;DHT22;34538;48.836;9.174;2022-09-09T13:24:37;22.40;98.30
48744;DHT22;34538;48.836;9.174;2022-09-09T13:27:05;22.40;97.70
48744;DHT22;34538;48.836;9.174;2022-09-09T13:29:51;22.40;97.00
48744;DHT22;34538;48.836;9.174;2022-09-09T13:32:21;22.30;97.40
48744;DHT22;34538;48.836;9.174;2022-09-09T13:34:54;22.30;97.30
48744;DHT22;34538;48.836;9.174;2022-09-09T13:37:39;22.20;98.00
48744;DHT22;34538;48.836;9.174;2022-09-09T13:40:13;22.20;97.80
48744;DHT22;34538;48.836;9.174;2022-09-09T13:42:42;22.20;97.90
48744;DHT22;34538;48.836;9.174;2022-09-09T13:45:20;22.20;97.70
48744;DHT22;34538;48.836;9.174;2022-09-09T13:47:46;22.30;98.10
48744;DHT22;34538;48.836;9.174;2022-09-09T13:50:29;22.40;97.40
48744;DHT22;34538;48.836;9.174;2022-09-09T13:52:56;22.40;97.40
48744;DHT22;34538;48.836;9.174;2022-09-09T13:55:27;22.30;97.40
48744;DHT22;34538;48.836;9.174;2022-09-09T13:58:00;22.30;97.50
48744;DHT22;34538;48.836;9.174;2022-09-09T14:00:29;22.40;97.00
48744;DHT22;34538;48.836;9.174;2022-09-09T14:02:54;22.50;97.60
48744;DHT22;34538;48.836;9.174;2022-09-09T14:05:20;22.60;96.70
48744;DHT22;34538;48.836;9.174;2022-09-09T14:07:48;22.70;95.90
48744;DHT22;34538;48.836;9.174;2022-09-09T14:10:15;22.80;95.80
48744;DHT22;34538;48.836;9.174;2022-09-09T14:12:40;22.90;95.30
48744;DHT22;34538;48.836;9.174;2022-09-09T14:15:07;23.00;95.20
48744;DHT22;34538;48.836;9.174;2022-09-09T14:17:33;23.10;95.20
48744;DHT22;34538;48.836;9.174;2022-09-09T14:20:05;23.20;94.90
48744;DHT22;34538;48.836;9.174;2022-09-09T14:22:35;23.20;95.00
48744;DHT22;34538;48.836;9.174;2022-09-09T14:25:01;23.20;94.70
48744;DHT22;34538;48.836;9.174;2022-09-09T14:27:27;23.20;94.90
48744;DHT22;34538;48.836;9.174;2022-09-09T14:29:54;23.00;95.10
48744;DHT22;34538;48.836;9.174;2022-09-09T14:32:20;23.00;94.10
48744;DHT22;34538;48.836;9.174;2022-09-09T14:34:46;22.90;94.30
48744;DHT22;34538;48.836;9.174;2022-09-09T14:37:16;22.80;94.50
48744;DHT22;34538;48.836;9.174;2022-09-09T14:39:42;22.70;94.70
48744;DHT22;34538;48.836;9.174;2022-09-09T14:42:10;22.70;94.80
48744;DHT22;34538;48.836;9.174;2022-09-09T14:44:37;22.70;94.10
48744;DHT22;34538;48.836;9.174;2022-09-09T14:47:04;22.70;94.00
48744;DHT22;34538;48.836;9.174;2022-09-09T14:49:30;22.70;94.00
48744;DHT22;34538;48.836;9.174;2022-09-09T14:51:56;22.70;94.20
48744;DHT22;34538;48.836;9.174;2022-09-09T14:54:22;22.70;94.10
48744;DHT22;34538;48.836;9.174;2022-09-09T14:56:48;22.80;94.10
48744;DHT22;34538;48.836;9.174;2022-09-09T14:59:14;22.90;93.90
48744;DHT22;34538;48.836;9.174;2022-09-09T15:01:40;22.90;94.00
48744;DHT22;34538;48.836;9.174;2022-09-09T15:04:06;22.90;93.80
48744;DHT22;34538;48.836;9.174;2022-09-09T15:06:34;23.00;94.50
48744;DHT22;34538;48.836;9.174;2022-09-09T15:09:01;23.00;93.90
48744;DHT22;34538;48.836;9.174;2022-09-09T15:11:28;23.10;93.90
48744;DHT22;34538;48.836;9.174;2022-09-09T15:13:56;23.10;93.80
48744;DHT22;34538;48.836;9.174;2022-09-09T15:16:24;23.10;93.10
48744;DHT22;34538;48.836;9.174;2022-09-09T15:18:53;23.00;93.00
48744;DHT22;34538;48.836;9.174;2022-09-09T15:21:21;22.90;93.20
48744;DHT22;34538;48.836;9.174;2022-09-09T15:23:48;22.80;93.50
48744;DHT22;34538;48.836;9.174;2022-09-09T15:26:14;22.70;93.20
48744;DHT22;34538;48.836;9.174;2022-09-09T15:28:41;22.60;92.90
48744;DHT22;34538;48.836;9.174;2022-09-09T15:31:13;22.40;93.10
48744;DHT22;34538;48.836;9.174;2022-09-09T15:33:40;22.30;93.10
48744;DHT22;34538;48.836;9.174;2022-09-09T15:36:18;22.30;93.30
48744;DHT22;34538;48.836;9.174;2022-09-09T15:38:44;22.20;93.50
48744;DHT22;34538;48.836;9.174;2022-09-09T15:41:11;22.10;93.50
48744;DHT22;34538;48.836;9.174;2022-09-09T15:43:37;22.10;94.00
48744;DHT22;34538;48.836;9.174;2022-09-09T15:49:04;22.00;94.20
48744;DHT22;34538;48.836;9.174;2022-09-09T15:51:30;22.00;94.50
48744;DHT22;34538;48.836;9.174;2022-09-09T15:53:57;21.90;94.90
48744;DHT22;34538;48.836;9.174;2022-09-09T15:56:25;21.80;94.60
48744;DHT22;34538;48.836;9.174;2022-09-09T15:58:51;21.80;94.90
48744;DHT22;34538;48.836;9.174;2022-09-09T16:01:17;21.70;95.30
48744;DHT22;34538;48.836;9.174;2022-09-09T16:03:44;21.60;95.20
48744;DHT22;34538;48.836;9.174;2022-09-09T16:06:13;21.60;95.50
48744;DHT22;34538;48.836;9.174;2022-09-09T16:08:41;21.50;95.50
48744;DHT22;34538;48.836;9.174;2022-09-09T16:11:12;21.50;95.90
48744;DHT22;34538;48.836;9.174;2022-09-09T16:13:40;21.50;95.90
48744;DHT22;34538;48.836;9.174;2022-09-09T16:16:07;21.40;95.90
48744;DHT22;34538;48.836;9.174;2022-09-09T16:18:37;21.40;95.60
48744;DHT22;34538;48.836;9.174;2022-09-09T16:21:04;21.40;95.90
48744;DHT22;34538;48.836;9.174;2022-09-09T16:23:31;21.30;95.50
48744;DHT22;34538;48.836;9.174;2022-09-09T16:25:58;21.30;95.90
48744;DHT22;34538;48.836;9.174;2022-09-09T16:28:23;21.40;95.80
48744;DHT22;34538;48.836;9.174;2022-09-09T16:30:49;21.20;94.70
48744;DHT22;34538;48.836;9.174;2022-09-09T16:33:16;21.00;94.80
48744;DHT22;34538;48.836;9.174;2022-09-09T16:35:42;20.70;94.90
48744;DHT22;34538;48.836;9.174;2022-09-09T16:38:08;20.40;95.40
48744;DHT22;34538;48.836;9.174;2022-09-09T16:40:34;20.10;95.90
48744;DHT22;34538;48.836;9.174;2022-09-09T16:43:00;19.90;96.60
48744;DHT22;34538;48.836;9.174;2022-09-09T16:45:27;19.70;97.00
48744;DHT22;34538;48.836;9.174;2022-09-09T16:47:53;19.50;97.20
48744;DHT22;34538;48.836;9.174;2022-09-09T16:50:18;19.40;97.60
48744;DHT22;34538;48.836;9.174;2022-09-09T16:52:44;19.30;97.80
48744;DHT22;34538;48.836;9.174;2022-09-09T16:55:10;19.30;98.20
48744;DHT22;34538;48.836;9.174;2022-09-09T16:57:35;19.20;99.30
48744;DHT22;34538;48.836;9.174;2022-09-09T17:00:03;19.00;99.90
48744;DHT22;34538;48.836;9.174;2022-09-09T17:02:30;18.60;99.90
48744;DHT22;34538;48.836;9.174;2022-09-09T17:04:55;18.30;99.90
48744;DHT22;34538;48.836;9.174;2022-09-09T17:07:21;18.00;99.90
48744;DHT22;34538;48.836;9.174;2022-09-09T17:09:48;17.70;99.90
48744;DHT22;34538;48.836;9.174;2022-09-09T17:12:14;17.50;99.90
48744;DHT22;34538;48.836;9.174;2022-09-09T17:14:42;17.40;99.90
48744;DHT22;34538;48.836;9.174;2022-09-09T17:17:07;17.30;99.90
48744;DHT22;34538;48.836;9.174;2022-09-09T17:19:33;17.20;99.90
48744;DHT22;34538;48.836;9.174;2022-09-09T17:21:59;17.10;99.90
48744;DHT22;34538;48.836;9.174;2022-09-09T17:24:28;17.10;99.90
48744;DHT22;34538;48.836;9.174;2022-09-09T17:26:54;17.10;99.90
48744;DHT22;34538;48.836;9.174;2022-09-09T17:29:21;17.10;99.90
48744;DHT22;34538;48.836;9.174;2022-09-09T17:31:47;17.10;99.90
48744;DHT22;34538;48.836;9.174;2022-09-09T17:34:12;17.10;99.90
48744;DHT22;34538;48.836;9.174;2022-09-09T17:36:38;17.10;99.90
48744;DHT22;34538;48.836;9.174;2022-09-09T17:39:05;17.20;99.90
48744;DHT22;34538;48.836;9.174;2022-09-09T17:41:34;17.20;99.90
48744;DHT22;34538;48.836;9.174;2022-09-09T17:44:00;17.20;99.90
48744;DHT22;34538;48.836;9.174;2022-09-09T17:46:30;17.20;99.90
48744;DHT22;34538;48.836;9.174;2022-09-09T17:48:59;17.20;99.90